createdAt,value
2019-05-23T00:01:48.369Z,99.90
2019-05-23T00:04:19.772Z,99.90
2019-05-23T00:06:47.639Z,99.90
2019-05-23T00:09:14.309Z,99.90
2019-05-23T00:11:43.453Z,99.90
2019-05-23T00:14:24.407Z,99.90
2019-05-23T00:16:53.461Z,99.90
2019-05-23T00:19:21.429Z,99.90
2019-05-23T00:21:50.363Z,99.90
2019-05-23T00:24:17.215Z,99.90
2019-05-23T00:26:44.398Z,99.90
2019-05-23T00:29:11.761Z,99.90
2019-05-23T00:31:43.988Z,99.90
2019-05-23T00:34:11.526Z,99.90
2019-05-23T00:36:39.270Z,99.90
2019-05-23T00:39:07.232Z,99.90
2019-05-23T00:41:34.573Z,99.90
2019-05-23T00:44:01.656Z,99.90
2019-05-23T00:46:29.473Z,99.90
2019-05-23T00:48:57.644Z,99.90
2019-05-23T00:51:25.410Z,99.90
2019-05-23T00:53:52.460Z,99.90
2019-05-23T00:56:19.941Z,99.90
2019-05-23T00:58:48.393Z,99.90
2019-05-23T01:01:15.750Z,99.90
2019-05-23T01:03:42.918Z,99.90
2019-05-23T01:06:10.239Z,99.90
2019-05-23T01:08:37.712Z,99.90
2019-05-23T01:11:04.437Z,99.90
2019-05-23T01:13:31.304Z,99.90
2019-05-23T01:15:58.344Z,99.90
2019-05-23T01:18:25.905Z,99.90
2019-05-23T01:23:30.010Z,99.90
2019-05-23T01:25:56.856Z,99.90
2019-05-23T01:28:24.752Z,99.90
2019-05-23T01:30:53.873Z,99.90
2019-05-23T01:33:20.675Z,99.90
2019-05-23T01:35:47.609Z,99.90
2019-05-23T01:38:16.218Z,99.90
2019-05-23T01:40:43.353Z,99.90
2019-05-23T01:43:11.629Z,99.90
2019-05-23T01:45:39.982Z,99.90
2019-05-23T01:48:06.637Z,99.90
2019-05-23T01:50:33.405Z,99.90
2019-05-23T01:53:00.880Z,99.90
2019-05-23T01:55:27.558Z,99.90
2019-05-23T01:57:55.266Z,99.90
2019-05-23T02:00:25.069Z,99.90
2019-05-23T02:02:51.885Z,99.90
2019-05-23T02:05:18.661Z,99.90
2019-05-23T02:07:46.398Z,99.90
2019-05-23T02:10:15.390Z,99.90
2019-05-23T02:12:43.524Z,99.90
2019-05-23T02:15:11.500Z,99.90
2019-05-23T02:17:40.334Z,99.90
2019-05-23T02:20:12.513Z,99.90
2019-05-23T02:22:40.919Z,99.90
2019-05-23T02:25:09.729Z,99.90
2019-05-23T02:27:36.442Z,99.90
2019-05-23T02:30:29.927Z,99.90
2019-05-23T02:32:37.194Z,99.90
2019-05-23T02:35:07.655Z,99.90
2019-05-23T02:37:42.118Z,99.90
2019-05-23T02:40:22.301Z,99.90
2019-05-23T02:43:00.291Z,99.90
2019-05-23T02:45:29.753Z,99.90
2019-05-23T02:47:57.822Z,99.90
2019-05-23T02:50:40.201Z,99.90
2019-05-23T02:53:10.574Z,99.90
2019-05-23T02:55:38.508Z,99.90
2019-05-23T02:58:21.304Z,99.90
2019-05-23T03:00:55.491Z,99.90
2019-05-23T03:03:25.323Z,99.90
2019-05-23T03:05:52.560Z,99.90
2019-05-23T03:08:21.064Z,99.90
2019-05-23T03:10:57.681Z,99.90
2019-05-23T03:13:25.958Z,99.90
2019-05-23T03:15:53.094Z,99.90
2019-05-23T03:18:21.372Z,99.90
2019-05-23T03:20:50.354Z,99.90
2019-05-23T03:23:36.971Z,99.90
2019-05-23T03:26:28.033Z,99.90
2019-05-23T03:28:55.251Z,99.90
2019-05-23T03:31:42.465Z,99.90
2019-05-23T03:34:11.206Z,99.90
2019-05-23T03:36:38.638Z,99.90
2019-05-23T03:39:06.893Z,99.90
2019-05-23T03:41:34.854Z,99.90
2019-05-23T03:44:02.739Z,99.90
2019-05-23T03:46:31.293Z,99.90
2019-05-23T03:48:58.738Z,99.90
2019-05-23T03:51:26.431Z,99.90
2019-05-23T03:53:54.061Z,99.90
2019-05-23T03:56:22.466Z,99.90
2019-05-23T03:58:51.534Z,99.90
2019-05-23T04:01:20.208Z,99.90
2019-05-23T04:03:47.645Z,99.90
2019-05-23T04:06:14.713Z,99.90
2019-05-23T04:08:41.355Z,99.90
2019-05-23T04:11:08.222Z,99.90
2019-05-23T04:13:35.650Z,99.90
2019-05-23T04:16:03.281Z,99.90
2019-05-23T04:18:30.359Z,99.90
2019-05-23T04:20:57.042Z,99.90
2019-05-23T04:23:23.785Z,99.90
2019-05-23T04:25:51.353Z,99.90
2019-05-23T04:28:18.353Z,99.90
2019-05-23T04:30:45.120Z,99.90
2019-05-23T04:33:11.804Z,99.90
2019-05-23T04:35:38.739Z,99.90
2019-05-23T04:38:06.015Z,99.90
2019-05-23T04:40:33.138Z,99.90
2019-05-23T04:42:59.821Z,99.90
2019-05-23T04:45:29.000Z,99.90
2019-05-23T04:47:56.128Z,99.90
2019-05-23T04:50:23.303Z,99.90
2019-05-23T04:52:50.145Z,99.90
2019-05-23T04:55:18.106Z,99.90
2019-05-23T04:57:46.473Z,99.90
2019-05-23T05:00:14.979Z,99.90
2019-05-23T05:02:43.168Z,99.90
2019-05-23T05:05:11.295Z,99.90
2019-05-23T05:07:39.553Z,99.90
2019-05-23T05:10:09.437Z,99.90
2019-05-23T05:12:36.822Z,99.90
2019-05-23T05:15:04.844Z,99.90
2019-05-23T05:17:31.618Z,99.90
2019-05-23T05:19:58.657Z,99.90
2019-05-23T05:22:25.737Z,99.90
2019-05-23T05:24:52.428Z,99.90
2019-05-23T05:27:20.255Z,99.90
2019-05-23T05:29:46.872Z,99.90
2019-05-23T05:32:15.285Z,99.90
2019-05-23T05:34:41.903Z,99.90
2019-05-23T05:37:08.615Z,99.90
2019-05-23T05:39:35.942Z,99.90
2019-05-23T05:42:03.062Z,99.90
2019-05-23T05:44:29.800Z,99.90
2019-05-23T05:46:56.538Z,99.90
2019-05-23T05:49:24.392Z,99.90
2019-05-23T05:51:51.427Z,99.90
2019-05-23T05:54:18.714Z,99.90
2019-05-23T05:56:45.561Z,99.90
2019-05-23T05:59:12.346Z,99.90
2019-05-23T06:01:39.910Z,99.90
2019-05-23T06:04:06.710Z,99.90
2019-05-23T06:06:37.745Z,99.90
2019-05-23T06:09:10.797Z,99.90
2019-05-23T06:11:38.140Z,99.90
2019-05-23T06:14:06.024Z,99.90
2019-05-23T06:16:34.168Z,99.90
2019-05-23T06:19:00.858Z,99.90
2019-05-23T06:21:28.321Z,99.90
2019-05-23T06:23:55.535Z,99.90
2019-05-23T06:26:22.310Z,99.90
2019-05-23T06:28:49.321Z,99.90
2019-05-23T06:31:16.584Z,99.90
2019-05-23T06:33:44.139Z,99.90
2019-05-23T06:36:11.614Z,99.90
2019-05-23T06:38:38.451Z,99.90
2019-05-23T06:41:05.234Z,99.90
2019-05-23T06:43:34.370Z,99.90
2019-05-23T06:46:01.150Z,99.90
2019-05-23T06:48:28.764Z,99.90
2019-05-23T06:50:55.860Z,99.90
2019-05-23T06:53:22.625Z,99.90
2019-05-23T06:55:49.393Z,99.90
2019-05-23T06:58:16.117Z,99.90
2019-05-23T07:00:43.311Z,99.90
2019-05-23T07:03:09.920Z,99.90
2019-05-23T07:05:37.220Z,99.90
2019-05-23T07:08:04.357Z,99.90
2019-05-23T07:10:31.040Z,99.90
2019-05-23T07:12:57.711Z,99.90
2019-05-23T07:15:26.436Z,99.90
2019-05-23T07:17:53.318Z,99.90
2019-05-23T07:20:20.853Z,99.90
2019-05-23T07:22:47.684Z,99.90
2019-05-23T07:25:15.070Z,99.90
2019-05-23T07:27:42.086Z,99.90
2019-05-23T07:30:23.865Z,99.90
2019-05-23T07:32:51.396Z,99.90
2019-05-23T07:35:19.073Z,99.90
2019-05-23T07:37:45.901Z,99.90
2019-05-23T07:40:13.259Z,99.90
2019-05-23T07:42:39.976Z,99.90
2019-05-23T07:45:09.451Z,99.90
2019-05-23T07:47:39.929Z,99.90
2019-05-23T07:50:07.834Z,99.90
2019-05-23T07:52:35.014Z,99.90
2019-05-23T07:55:03.550Z,99.90
2019-05-23T07:57:30.737Z,99.90
2019-05-23T07:59:57.517Z,99.90
2019-05-23T08:02:31.321Z,99.90
2019-05-23T08:04:58.880Z,99.90
2019-05-23T08:07:25.760Z,99.90
2019-05-23T08:09:52.510Z,99.90
2019-05-23T08:12:19.581Z,99.90
2019-05-23T08:15:04.576Z,99.90
2019-05-23T08:17:26.454Z,99.90
2019-05-23T08:19:53.102Z,99.90
2019-05-23T08:22:19.863Z,99.90
2019-05-23T08:24:50.928Z,99.90
2019-05-23T08:27:15.590Z,99.90
2019-05-23T08:29:42.515Z,99.90
2019-05-23T08:32:09.410Z,99.90
2019-05-23T08:34:41.181Z,99.90
2019-05-23T08:37:06.831Z,99.90
2019-05-23T08:39:34.571Z,99.90
2019-05-23T08:42:02.119Z,99.90
2019-05-23T08:44:29.471Z,99.90
2019-05-23T08:46:56.349Z,99.90
2019-05-23T08:49:23.508Z,99.90
2019-05-23T08:51:50.275Z,99.90
2019-05-23T08:54:17.361Z,99.90
2019-05-23T08:56:44.336Z,99.90
2019-05-23T08:59:11.979Z,99.90
2019-05-23T09:01:38.765Z,99.90
2019-05-23T09:04:05.813Z,99.90
2019-05-23T09:06:33.961Z,99.90
2019-05-23T09:09:01.531Z,99.90
2019-05-23T09:11:28.368Z,99.90
2019-05-23T09:13:55.366Z,99.90
2019-05-23T09:16:22.646Z,99.90
2019-05-23T09:18:49.426Z,99.90
2019-05-23T09:21:16.059Z,99.90
2019-05-23T09:23:42.841Z,99.90
2019-05-23T09:26:09.591Z,99.90
2019-05-23T09:28:36.610Z,99.90
2019-05-23T09:31:04.273Z,99.90
2019-05-23T09:33:31.032Z,99.90
2019-05-23T09:35:58.369Z,99.90
2019-05-23T09:38:25.442Z,99.90
2019-05-23T09:40:52.090Z,99.90
2019-05-23T09:43:18.752Z,99.90
2019-05-23T09:45:45.398Z,99.90
2019-05-23T09:48:12.187Z,99.90
2019-05-23T09:50:39.231Z,99.90
2019-05-23T09:53:05.991Z,99.90
2019-05-23T09:55:33.317Z,99.30
2019-05-23T09:58:00.128Z,99.90
2019-05-23T10:00:26.862Z,99.90
2019-05-23T10:02:53.938Z,99.90
2019-05-23T10:05:40.296Z,99.80
2019-05-23T10:07:49.577Z,99.20
2019-05-23T10:10:17.256Z,99.90
2019-05-23T10:12:43.891Z,99.30
2019-05-23T10:15:27.934Z,99.20
2019-05-23T10:17:54.873Z,99.10
2019-05-23T10:20:25.896Z,98.30
2019-05-23T10:22:52.541Z,95.60
2019-05-23T10:25:19.318Z,93.50
2019-05-23T10:27:46.129Z,97.70
2019-05-23T10:30:14.926Z,97.20
2019-05-23T10:32:41.658Z,96.00
2019-05-23T10:35:11.900Z,97.50
2019-05-23T10:37:38.606Z,98.30
2019-05-23T10:40:07.099Z,98.10
2019-05-23T10:42:34.134Z,98.10
2019-05-23T10:45:00.966Z,98.80
2019-05-23T10:47:27.871Z,99.00
2019-05-23T10:49:54.849Z,98.20
2019-05-23T10:52:21.891Z,98.50
2019-05-23T10:54:48.577Z,99.20
2019-05-23T10:57:15.433Z,98.30
2019-05-23T10:59:42.234Z,98.30
2019-05-23T11:02:10.794Z,97.90
2019-05-23T11:04:37.563Z,97.70
2019-05-23T11:07:05.034Z,97.80
2019-05-23T11:09:37.644Z,97.90
2019-05-23T11:12:01.258Z,99.20
2019-05-23T11:14:28.150Z,99.30
2019-05-23T11:16:55.333Z,98.40
2019-05-23T11:19:22.464Z,97.30
2019-05-23T11:21:49.149Z,97.30
2019-05-23T11:24:16.598Z,97.80
2019-05-23T11:26:43.969Z,96.80
2019-05-23T11:29:10.656Z,97.30
2019-05-23T11:31:37.440Z,96.70
2019-05-23T11:34:04.164Z,96.70
2019-05-23T11:36:36.178Z,96.90
2019-05-23T11:38:59.385Z,97.30
2019-05-23T11:41:26.592Z,97.20
2019-05-23T11:43:53.324Z,96.60
2019-05-23T11:46:25.412Z,96.50
2019-05-23T11:48:52.150Z,96.20
2019-05-23T11:51:22.338Z,95.80
2019-05-23T11:54:05.910Z,96.60
2019-05-23T11:56:17.229Z,96.40
2019-05-23T11:58:45.153Z,96.50
2019-05-23T12:01:20.680Z,96.90
2019-05-23T12:03:46.024Z,96.90
2019-05-23T12:06:13.450Z,97.40
2019-05-23T12:08:40.226Z,96.90
2019-05-23T12:11:07.048Z,97.20
2019-05-23T12:13:33.729Z,96.40
2019-05-23T12:16:00.553Z,96.50
2019-05-23T12:18:27.853Z,96.80
2019-05-23T12:20:59.416Z,97.00
2019-05-23T12:23:24.365Z,96.80
2019-05-23T12:25:51.349Z,96.70
2019-05-23T12:28:18.655Z,97.10
2019-05-23T12:30:45.468Z,97.50
2019-05-23T12:33:12.159Z,97.50
2019-05-23T12:35:38.880Z,97.90
2019-05-23T12:38:05.948Z,97.20
2019-05-23T12:40:33.071Z,96.50
2019-05-23T12:42:59.761Z,95.90
2019-05-23T12:45:26.500Z,96.30
2019-05-23T12:48:00.877Z,95.90
2019-05-23T12:50:29.434Z,95.40
2019-05-23T12:52:56.224Z,95.00
2019-05-23T12:55:23.600Z,95.30
2019-05-23T12:57:50.429Z,94.00
2019-05-23T13:00:22.243Z,94.10
2019-05-23T13:02:48.865Z,93.80
2019-05-23T13:05:15.933Z,94.60
2019-05-23T13:07:42.594Z,94.10
2019-05-23T13:10:09.687Z,94.10
2019-05-23T13:12:36.674Z,93.40
2019-05-23T13:15:06.678Z,93.40
2019-05-23T13:17:33.301Z,92.60
2019-05-23T13:20:00.075Z,93.40
2019-05-23T13:22:26.834Z,93.50
2019-05-23T13:24:53.650Z,94.00
2019-05-23T13:27:20.740Z,94.20
2019-05-23T13:29:47.544Z,92.80
2019-05-23T13:32:14.198Z,93.10
2019-05-23T13:34:40.893Z,94.20
2019-05-23T13:37:09.615Z,93.90
2019-05-23T13:39:36.517Z,93.20
2019-05-23T13:42:03.354Z,92.90
2019-05-23T13:44:35.246Z,93.20
2019-05-23T13:46:58.692Z,92.90
2019-05-23T13:49:25.780Z,93.00
2019-05-23T13:51:52.935Z,93.20
2019-05-23T13:54:20.489Z,92.70
2019-05-23T13:56:47.919Z,93.10
2019-05-23T13:59:15.072Z,93.80
2019-05-23T14:01:41.785Z,94.30
2019-05-23T14:04:08.745Z,94.10
2019-05-23T14:06:35.518Z,93.90
2019-05-23T14:09:02.561Z,93.70
2019-05-23T14:11:29.423Z,94.40
2019-05-23T14:14:00.606Z,93.90
2019-05-23T14:16:26.693Z,94.30
2019-05-23T14:18:53.420Z,93.00
2019-05-23T14:21:20.246Z,92.80
2019-05-23T14:23:47.056Z,92.30
2019-05-23T14:26:13.987Z,91.60
2019-05-23T14:28:41.076Z,91.40
2019-05-23T14:31:09.845Z,91.10
2019-05-23T14:33:47.303Z,91.70
2019-05-23T14:36:25.109Z,92.60
2019-05-23T14:38:53.789Z,92.20
2019-05-23T14:41:20.578Z,92.30
2019-05-23T14:43:48.114Z,91.90
2019-05-23T14:46:17.910Z,91.80
2019-05-23T14:48:49.330Z,93.00
2019-05-23T14:51:24.330Z,92.00
2019-05-23T14:53:59.365Z,91.80
2019-05-23T14:56:28.446Z,92.50
2019-05-23T14:58:55.181Z,92.80
2019-05-23T15:01:24.149Z,92.80
2019-05-23T15:03:50.891Z,93.10
2019-05-23T15:06:18.368Z,93.30
2019-05-23T15:08:50.899Z,93.40
2019-05-23T15:11:13.814Z,93.20
2019-05-23T15:13:40.469Z,93.30
2019-05-23T15:16:08.264Z,93.30
2019-05-23T15:18:35.001Z,93.40
2019-05-23T15:21:02.309Z,93.90
2019-05-23T15:23:29.019Z,93.10
2019-05-23T15:25:55.839Z,93.40
2019-05-23T15:28:22.548Z,93.80
2019-05-23T15:30:49.698Z,94.10
2019-05-23T15:33:16.899Z,94.50
2019-05-23T15:35:43.669Z,94.30
2019-05-23T15:38:12.308Z,95.00
2019-05-23T15:40:38.901Z,95.10
2019-05-23T15:43:09.526Z,94.30
2019-05-23T15:45:34.368Z,94.10
2019-05-23T15:48:01.159Z,93.80
2019-05-23T15:50:32.766Z,94.90
2019-05-23T15:53:01.753Z,94.10
2019-05-23T15:55:33.037Z,94.50
2019-05-23T15:58:04.418Z,94.10
2019-05-23T16:00:51.953Z,94.30
2019-05-23T16:03:23.399Z,94.30
2019-05-23T16:05:50.066Z,94.50
2019-05-23T16:08:17.234Z,94.40
2019-05-23T16:11:04.358Z,94.30
2019-05-23T16:13:31.234Z,94.10
2019-05-23T16:15:57.870Z,93.90
2019-05-23T16:18:25.322Z,94.20
2019-05-23T16:20:52.008Z,94.50
2019-05-23T16:23:19.834Z,93.80
2019-05-23T16:25:46.924Z,94.10
2019-05-23T16:28:13.926Z,93.90
2019-05-23T16:30:40.821Z,93.50
2019-05-23T16:33:07.611Z,93.60
2019-05-23T16:35:34.531Z,94.30
2019-05-23T16:38:01.394Z,93.50
2019-05-23T16:40:28.137Z,93.70
2019-05-23T16:42:54.870Z,93.90
2019-05-23T16:45:21.714Z,94.00
2019-05-23T16:47:48.373Z,93.80
2019-05-23T16:50:15.351Z,94.20
2019-05-23T16:52:41.968Z,93.80
2019-05-23T16:55:25.901Z,93.70
2019-05-23T16:57:54.470Z,94.40
2019-05-23T17:00:40.983Z,94.00
2019-05-23T17:03:09.921Z,93.90
2019-05-23T17:05:55.129Z,93.70
2019-05-23T17:08:26.475Z,93.90
2019-05-23T17:11:00.877Z,94.40
2019-05-23T17:13:32.664Z,94.40
2019-05-23T17:16:18.034Z,94.00
2019-05-23T17:18:46.914Z,94.00
2019-05-23T17:21:19.011Z,94.20
2019-05-23T17:23:47.945Z,94.60
2019-05-23T17:26:19.095Z,94.50
2019-05-23T17:28:47.660Z,94.20
2019-05-23T17:31:16.429Z,94.20
2019-05-23T17:33:44.461Z,94.30
2019-05-23T17:36:11.262Z,94.40
2019-05-23T17:38:38.020Z,94.50
2019-05-23T17:41:05.326Z,94.90
2019-05-23T17:43:32.138Z,95.20
2019-05-23T17:45:58.783Z,95.40
2019-05-23T17:48:25.461Z,95.70
2019-05-23T17:50:52.394Z,95.60
2019-05-23T17:53:19.610Z,95.50
2019-05-23T17:55:46.699Z,95.70
2019-05-23T17:58:13.568Z,95.30
2019-05-23T18:00:41.981Z,95.60
2019-05-23T18:03:09.132Z,95.90
2019-05-23T18:05:36.389Z,96.40
2019-05-23T18:08:04.732Z,96.70
2019-05-23T18:10:43.850Z,97.20
2019-05-23T18:13:01.241Z,97.70
2019-05-23T18:15:28.172Z,98.30
2019-05-23T18:17:58.803Z,99.20
2019-05-23T18:20:23.863Z,99.60
2019-05-23T18:22:50.887Z,99.80
2019-05-23T18:25:17.824Z,99.70
2019-05-23T18:27:45.193Z,99.90
2019-05-23T18:30:26.293Z,99.90
2019-05-23T18:32:53.690Z,99.90
2019-05-23T18:35:20.755Z,99.90
2019-05-23T18:37:47.480Z,99.90
2019-05-23T18:40:14.769Z,99.90
2019-05-23T18:42:42.028Z,99.90
2019-05-23T18:45:09.970Z,99.90
2019-05-23T18:47:39.427Z,99.90
2019-05-23T18:50:07.499Z,99.90
2019-05-23T18:52:34.185Z,99.90
2019-05-23T18:55:00.853Z,99.90
2019-05-23T18:57:28.538Z,99.90
2019-05-23T18:59:55.603Z,99.90
2019-05-23T19:02:22.689Z,99.90
2019-05-23T19:04:50.657Z,99.90
2019-05-23T19:07:17.713Z,99.90
2019-05-23T19:09:45.075Z,99.90
2019-05-23T19:12:11.845Z,99.90
2019-05-23T19:14:38.540Z,99.90
2019-05-23T19:17:05.823Z,99.90
2019-05-23T19:19:32.562Z,99.90
2019-05-23T19:21:59.321Z,99.90
2019-05-23T19:24:26.010Z,99.90
2019-05-23T19:26:53.429Z,99.90
2019-05-23T19:29:21.691Z,99.90
2019-05-23T19:31:48.435Z,99.90
2019-05-23T19:34:15.094Z,99.90
2019-05-23T19:36:42.018Z,99.90
2019-05-23T19:39:09.042Z,99.90
2019-05-23T19:41:37.824Z,99.90
2019-05-23T19:44:04.591Z,99.90
2019-05-23T19:46:31.455Z,99.90
2019-05-23T19:48:59.304Z,99.90
2019-05-23T19:51:27.158Z,99.90
2019-05-23T19:53:54.408Z,99.90
2019-05-23T19:56:21.396Z,99.90
2019-05-23T19:58:48.708Z,99.90
2019-05-23T20:01:15.864Z,99.90
2019-05-23T20:03:42.537Z,99.90
2019-05-23T20:06:10.179Z,99.90
2019-05-23T20:08:37.320Z,99.90
2019-05-23T20:11:06.010Z,99.90
2019-05-23T20:13:32.657Z,99.90
2019-05-23T20:15:59.779Z,99.90
2019-05-23T20:18:27.031Z,99.90
2019-05-23T20:20:54.090Z,99.90
2019-05-23T20:23:21.431Z,99.90
2019-05-23T20:25:48.465Z,99.90
2019-05-23T20:28:15.526Z,99.90
2019-05-23T20:30:46.657Z,99.90
2019-05-23T20:33:14.029Z,99.90
2019-05-23T20:35:40.654Z,99.90
2019-05-23T20:38:07.533Z,99.90
2019-05-23T20:40:34.273Z,99.90
2019-05-23T20:43:02.675Z,99.90
2019-05-23T20:45:29.600Z,99.90
2019-05-23T20:47:56.261Z,99.90
2019-05-23T20:50:22.996Z,99.90
2019-05-23T20:52:50.093Z,99.90
2019-05-23T20:55:16.811Z,99.90
2019-05-23T20:57:44.496Z,99.90
2019-05-23T21:00:13.373Z,99.90
2019-05-23T21:02:40.536Z,99.90
2019-05-23T21:05:07.385Z,99.90
2019-05-23T21:07:34.060Z,99.90
2019-05-23T21:10:00.790Z,99.90
2019-05-23T21:12:30.419Z,99.90
2019-05-23T21:14:55.942Z,99.90
2019-05-23T21:17:23.709Z,99.90
2019-05-23T21:19:50.381Z,99.90
2019-05-23T21:22:17.083Z,99.90
2019-05-23T21:24:43.809Z,99.90
2019-05-23T21:27:10.470Z,99.90
2019-05-23T21:29:38.516Z,99.90
2019-05-23T21:32:05.796Z,99.90
2019-05-23T21:34:32.407Z,99.90
2019-05-23T21:36:59.149Z,99.90
2019-05-23T21:39:26.121Z,99.90
2019-05-23T21:41:52.799Z,99.90
2019-05-23T21:44:19.619Z,99.90
2019-05-23T21:46:46.359Z,99.90
2019-05-23T21:49:13.080Z,99.90
2019-05-23T21:51:39.734Z,99.90
2019-05-23T21:54:06.380Z,99.90
2019-05-23T21:56:33.353Z,99.90
2019-05-23T21:58:59.995Z,99.90
2019-05-23T22:01:28.634Z,99.90
2019-05-23T22:04:16.136Z,99.90
2019-05-23T22:06:48.371Z,99.90
2019-05-23T22:09:15.181Z,99.90
2019-05-23T22:11:41.994Z,99.90
2019-05-23T22:14:08.667Z,99.90
2019-05-23T22:16:36.145Z,99.90
2019-05-23T22:19:05.109Z,99.90
2019-05-23T22:21:31.810Z,99.90
2019-05-23T22:23:59.141Z,99.90
2019-05-23T22:26:25.993Z,99.90
2019-05-23T22:28:52.769Z,99.90
2019-05-23T22:31:20.440Z,99.90
2019-05-23T22:33:57.776Z,99.90
2019-05-23T22:36:25.700Z,99.90
2019-05-23T22:38:52.310Z,99.90
2019-05-23T22:41:19.310Z,99.90
2019-05-23T22:43:46.237Z,99.90
2019-05-23T22:46:13.328Z,99.90
2019-05-23T22:48:39.941Z,99.90
2019-05-23T22:51:06.629Z,99.90
2019-05-23T22:53:33.252Z,99.90
2019-05-23T22:55:59.912Z,99.90
2019-05-23T22:58:26.565Z,99.90
2019-05-23T23:00:53.337Z,99.90
2019-05-23T23:03:19.956Z,99.90
2019-05-23T23:05:46.685Z,99.90
2019-05-23T23:08:13.653Z,99.90
2019-05-23T23:10:40.292Z,99.90
2019-05-23T23:13:07.026Z,99.90
2019-05-23T23:15:34.051Z,99.90
2019-05-23T23:18:00.997Z,99.90
2019-05-23T23:20:27.634Z,99.90
2019-05-23T23:22:54.325Z,99.90
2019-05-23T23:25:20.973Z,99.90
2019-05-23T23:27:47.632Z,99.90
2019-05-23T23:30:16.509Z,99.90
2019-05-23T23:32:45.020Z,99.90
2019-05-23T23:35:11.808Z,99.90
2019-05-23T23:37:38.580Z,99.90
2019-05-23T23:40:05.758Z,99.90
2019-05-23T23:42:32.492Z,99.90
2019-05-23T23:45:17.617Z,99.90
2019-05-23T23:48:02.937Z,99.90
2019-05-23T23:50:48.303Z,99.90
2019-05-23T23:53:33.518Z,99.90
2019-05-23T23:56:18.942Z,99.90
2019-05-23T23:58:45.625Z,99.90
